sensor_id;sensor_type;location;lat;lon;timestamp;P1;durP1;ratioP1;P2;durP2;ratioP2
79137;SDS011;68544;45.566;10.238;2024-01-30T00:01:18;12.40;;;9.37;;
79137;SDS011;68544;45.566;10.238;2024-01-30T00:03:43;10.60;;;8.40;;
79137;SDS011;68544;45.566;10.238;2024-01-30T00:06:08;13.87;;;11.17;;
79137;SDS011;68544;45.566;10.238;2024-01-30T00:08:34;9.57;;;8.57;;
79137;SDS011;68544;45.566;10.238;2024-01-30T00:10:59;10.83;;;8.27;;
79137;SDS011;68544;45.566;10.238;2024-01-30T00:13:25;14.93;;;9.75;;
79137;SDS011;68544;45.566;10.238;2024-01-30T00:15:52;14.68;;;9.65;;
79137;SDS011;68544;45.566;10.238;2024-01-30T00:18:17;7.80;;;6.37;;
79137;SDS011;68544;45.566;10.238;2024-01-30T00:20:43;13.35;;;7.25;;
79137;SDS011;68544;45.566;10.238;2024-01-30T00:23:09;9.93;;;8.27;;
79137;SDS011;68544;45.566;10.238;2024-01-30T00:25:34;14.77;;;9.40;;
79137;SDS011;68544;45.566;10.238;2024-01-30T00:27:59;11.30;;;9.27;;
79137;SDS011;68544;45.566;10.238;2024-01-30T00:30:25;12.57;;;9.97;;
79137;SDS011;68544;45.566;10.238;2024-01-30T00:32:50;12.13;;;9.70;;
79137;SDS011;68544;45.566;10.238;2024-01-30T00:35:16;12.73;;;9.20;;
79137;SDS011;68544;45.566;10.238;2024-01-30T00:37:41;10.17;;;7.93;;
79137;SDS011;68544;45.566;10.238;2024-01-30T00:40:06;10.70;;;8.30;;
79137;SDS011;68544;45.566;10.238;2024-01-30T00:42:32;10.18;;;8.75;;
79137;SDS011;68544;45.566;10.238;2024-01-30T00:44:58;8.17;;;5.27;;
79137;SDS011;68544;45.566;10.238;2024-01-30T00:47:23;8.70;;;5.93;;
79137;SDS011;68544;45.566;10.238;2024-01-30T00:49:48;10.30;;;8.27;;
79137;SDS011;68544;45.566;10.238;2024-01-30T00:52:14;8.45;;;6.07;;
79137;SDS011;68544;45.566;10.238;2024-01-30T00:54:40;12.20;;;7.97;;
79137;SDS011;68544;45.566;10.238;2024-01-30T00:57:06;11.20;;;8.23;;
79137;SDS011;68544;45.566;10.238;2024-01-30T00:59:31;9.20;;;7.33;;
79137;SDS011;68544;45.566;10.238;2024-01-30T01:01:56;8.07;;;6.17;;
79137;SDS011;68544;45.566;10.238;2024-01-30T01:04:22;12.63;;;7.73;;
79137;SDS011;68544;45.566;10.238;2024-01-30T01:06:47;7.30;;;6.37;;
79137;SDS011;68544;45.566;10.238;2024-01-30T01:09:12;9.73;;;7.90;;
79137;SDS011;68544;45.566;10.238;2024-01-30T01:11:38;9.73;;;7.57;;
79137;SDS011;68544;45.566;10.238;2024-01-30T01:14:03;9.90;;;7.23;;
79137;SDS011;68544;45.566;10.238;2024-01-30T01:16:29;8.50;;;6.65;;
79137;SDS011;68544;45.566;10.238;2024-01-30T01:18:55;6.97;;;5.23;;
79137;SDS011;68544;45.566;10.238;2024-01-30T01:21:20;6.33;;;5.20;;
79137;SDS011;68544;45.566;10.238;2024-01-30T01:23:45;10.07;;;7.67;;
79137;SDS011;68544;45.566;10.238;2024-01-30T01:26:11;10.57;;;7.47;;
79137;SDS011;68544;45.566;10.238;2024-01-30T01:28:36;10.37;;;8.30;;
79137;SDS011;68544;45.566;10.238;2024-01-30T01:31:01;13.47;;;10.70;;
79137;SDS011;68544;45.566;10.238;2024-01-30T01:33:31;13.68;;;10.98;;
79137;SDS011;68544;45.566;10.238;2024-01-30T01:35:58;13.52;;;10.38;;
79137;SDS011;68544;45.566;10.238;2024-01-30T01:38:23;14.00;;;10.53;;
79137;SDS011;68544;45.566;10.238;2024-01-30T01:40:48;7.23;;;6.30;;
79137;SDS011;68544;45.566;10.238;2024-01-30T01:43:14;9.23;;;6.53;;
79137;SDS011;68544;45.566;10.238;2024-01-30T01:45:39;11.70;;;9.47;;
79137;SDS011;68544;45.566;10.238;2024-01-30T01:48:05;12.10;;;9.13;;
79137;SDS011;68544;45.566;10.238;2024-01-30T01:50:31;11.65;;;9.60;;
79137;SDS011;68544;45.566;10.238;2024-01-30T01:52:57;11.63;;;9.53;;
79137;SDS011;68544;45.566;10.238;2024-01-30T01:55:23;10.95;;;8.52;;
79137;SDS011;68544;45.566;10.238;2024-01-30T01:57:52;10.52;;;8.73;;
79137;SDS011;68544;45.566;10.238;2024-01-30T02:02:44;9.10;;;7.55;;
79137;SDS011;68544;45.566;10.238;2024-01-30T02:07:36;10.88;;;9.05;;
79137;SDS011;68544;45.566;10.238;2024-01-30T02:10:02;10.45;;;8.98;;
79137;SDS011;68544;45.566;10.238;2024-01-30T02:12:28;10.57;;;8.75;;
79137;SDS011;68544;45.566;10.238;2024-01-30T02:14:54;7.85;;;6.70;;
79137;SDS011;68544;45.566;10.238;2024-01-30T02:17:20;11.47;;;8.63;;
79137;SDS011;68544;45.566;10.238;2024-01-30T02:19:45;6.23;;;5.33;;
79137;SDS011;68544;45.566;10.238;2024-01-30T02:22:11;8.93;;;7.37;;
79137;SDS011;68544;45.566;10.238;2024-01-30T02:24:37;9.73;;;7.38;;
79137;SDS011;68544;45.566;10.238;2024-01-30T02:27:03;11.00;;;7.93;;
79137;SDS011;68544;45.566;10.238;2024-01-30T02:29:28;7.53;;;5.87;;
79137;SDS011;68544;45.566;10.238;2024-01-30T02:31:54;9.77;;;7.83;;
79137;SDS011;68544;45.566;10.238;2024-01-30T02:34:19;7.53;;;5.50;;
79137;SDS011;68544;45.566;10.238;2024-01-30T02:36:44;9.83;;;6.87;;
79137;SDS011;68544;45.566;10.238;2024-01-30T02:39:10;7.67;;;5.33;;
79137;SDS011;68544;45.566;10.238;2024-01-30T02:41:36;9.93;;;7.33;;
79137;SDS011;68544;45.566;10.238;2024-01-30T02:44:01;9.93;;;7.67;;
79137;SDS011;68544;45.566;10.238;2024-01-30T02:46:30;9.05;;;7.10;;
79137;SDS011;68544;45.566;10.238;2024-01-30T02:48:55;7.53;;;5.30;;
79137;SDS011;68544;45.566;10.238;2024-01-30T02:51:21;7.43;;;5.97;;
79137;SDS011;68544;45.566;10.238;2024-01-30T02:53:46;6.73;;;5.70;;
79137;SDS011;68544;45.566;10.238;2024-01-30T02:56:11;6.43;;;5.00;;
79137;SDS011;68544;45.566;10.238;2024-01-30T03:01:04;11.23;;;6.90;;
79137;SDS011;68544;45.566;10.238;2024-01-30T03:03:29;8.40;;;5.80;;
79137;SDS011;68544;45.566;10.238;2024-01-30T03:05:55;10.97;;;7.53;;
79137;SDS011;68544;45.566;10.238;2024-01-30T03:08:20;12.70;;;7.40;;
79137;SDS011;68544;45.566;10.238;2024-01-30T03:10:46;8.23;;;6.80;;
79137;SDS011;68544;45.566;10.238;2024-01-30T03:13:11;8.10;;;6.40;;
79137;SDS011;68544;45.566;10.238;2024-01-30T03:15:37;10.63;;;6.87;;
79137;SDS011;68544;45.566;10.238;2024-01-30T03:18:02;8.70;;;6.77;;
79137;SDS011;68544;45.566;10.238;2024-01-30T03:20:30;8.10;;;6.55;;
79137;SDS011;68544;45.566;10.238;2024-01-30T03:22:56;7.72;;;5.50;;
79137;SDS011;68544;45.566;10.238;2024-01-30T03:25:22;7.73;;;6.53;;
79137;SDS011;68544;45.566;10.238;2024-01-30T03:27:47;10.27;;;6.77;;
79137;SDS011;68544;45.566;10.238;2024-01-30T03:30:12;5.60;;;4.77;;
79137;SDS011;68544;45.566;10.238;2024-01-30T03:32:38;5.57;;;4.97;;
79137;SDS011;68544;45.566;10.238;2024-01-30T03:35:03;8.50;;;6.47;;
79137;SDS011;68544;45.566;10.238;2024-01-30T03:37:29;5.93;;;4.57;;
79137;SDS011;68544;45.566;10.238;2024-01-30T03:39:54;7.10;;;5.67;;
79137;SDS011;68544;45.566;10.238;2024-01-30T03:42:20;5.87;;;4.40;;
79137;SDS011;68544;45.566;10.238;2024-01-30T03:44:45;8.87;;;6.17;;
79137;SDS011;68544;45.566;10.238;2024-01-30T03:47:11;6.10;;;4.87;;
79137;SDS011;68544;45.566;10.238;2024-01-30T03:49:36;6.73;;;5.07;;
79137;SDS011;68544;45.566;10.238;2024-01-30T03:52:01;6.27;;;5.17;;
79137;SDS011;68544;45.566;10.238;2024-01-30T03:54:27;8.00;;;6.57;;
79137;SDS011;68544;45.566;10.238;2024-01-30T03:56:52;6.20;;;4.97;;
79137;SDS011;68544;45.566;10.238;2024-01-30T03:59:18;7.67;;;6.40;;
79137;SDS011;68544;45.566;10.238;2024-01-30T04:01:48;20.08;;;6.55;;
79137;SDS011;68544;45.566;10.238;2024-01-30T04:04:14;8.23;;;4.88;;
79137;SDS011;68544;45.566;10.238;2024-01-30T04:06:40;8.13;;;6.60;;
79137;SDS011;68544;45.566;10.238;2024-01-30T04:09:05;8.20;;;6.37;;
79137;SDS011;68544;45.566;10.238;2024-01-30T04:11:31;6.93;;;4.83;;
79137;SDS011;68544;45.566;10.238;2024-01-30T04:13:56;9.03;;;6.53;;
79137;SDS011;68544;45.566;10.238;2024-01-30T04:16:21;8.33;;;6.17;;
79137;SDS011;68544;45.566;10.238;2024-01-30T04:18:47;7.07;;;5.97;;
79137;SDS011;68544;45.566;10.238;2024-01-30T04:21:13;7.10;;;5.63;;
79137;SDS011;68544;45.566;10.238;2024-01-30T04:23:39;6.03;;;4.30;;
79137;SDS011;68544;45.566;10.238;2024-01-30T04:26:05;6.63;;;5.38;;
79137;SDS011;68544;45.566;10.238;2024-01-30T04:28:31;7.20;;;5.33;;
79137;SDS011;68544;45.566;10.238;2024-01-30T04:30:56;7.20;;;5.63;;
79137;SDS011;68544;45.566;10.238;2024-01-30T04:33:21;7.53;;;5.43;;
79137;SDS011;68544;45.566;10.238;2024-01-30T04:35:47;6.10;;;4.63;;
79137;SDS011;68544;45.566;10.238;2024-01-30T04:38:12;6.37;;;4.33;;
79137;SDS011;68544;45.566;10.238;2024-01-30T04:40:39;7.82;;;6.28;;
79137;SDS011;68544;45.566;10.238;2024-01-30T04:43:04;8.20;;;6.30;;
79137;SDS011;68544;45.566;10.238;2024-01-30T04:45:30;8.43;;;6.00;;
79137;SDS011;68544;45.566;10.238;2024-01-30T04:47:55;6.87;;;4.93;;
79137;SDS011;68544;45.566;10.238;2024-01-30T04:50:20;10.03;;;6.37;;
79137;SDS011;68544;45.566;10.238;2024-01-30T04:52:45;7.73;;;6.30;;
79137;SDS011;68544;45.566;10.238;2024-01-30T04:55:11;5.23;;;4.20;;
79137;SDS011;68544;45.566;10.238;2024-01-30T04:57:36;9.03;;;6.30;;
79137;SDS011;68544;45.566;10.238;2024-01-30T05:00:02;9.03;;;6.30;;
79137;SDS011;68544;45.566;10.238;2024-01-30T05:02:28;7.65;;;5.93;;
79137;SDS011;68544;45.566;10.238;2024-01-30T05:04:53;7.67;;;6.33;;
79137;SDS011;68544;45.566;10.238;2024-01-30T05:07:19;8.37;;;6.33;;
79137;SDS011;68544;45.566;10.238;2024-01-30T05:09:44;8.93;;;7.10;;
79137;SDS011;68544;45.566;10.238;2024-01-30T05:12:10;11.37;;;6.60;;
79137;SDS011;68544;45.566;10.238;2024-01-30T05:14:35;10.33;;;7.13;;
79137;SDS011;68544;45.566;10.238;2024-01-30T05:17:00;7.83;;;5.83;;
79137;SDS011;68544;45.566;10.238;2024-01-30T05:19:28;11.15;;;7.30;;
79137;SDS011;68544;45.566;10.238;2024-01-30T05:21:53;8.57;;;6.60;;
79137;SDS011;68544;45.566;10.238;2024-01-30T05:24:18;5.57;;;5.00;;
79137;SDS011;68544;45.566;10.238;2024-01-30T05:26:44;6.80;;;4.43;;
79137;SDS011;68544;45.566;10.238;2024-01-30T05:29:09;10.13;;;6.80;;
79137;SDS011;68544;45.566;10.238;2024-01-30T05:31:34;8.87;;;5.77;;
79137;SDS011;68544;45.566;10.238;2024-01-30T05:34:00;8.80;;;6.90;;
79137;SDS011;68544;45.566;10.238;2024-01-30T05:36:25;7.17;;;4.87;;
79137;SDS011;68544;45.566;10.238;2024-01-30T05:38:51;6.77;;;4.53;;
79137;SDS011;68544;45.566;10.238;2024-01-30T05:41:16;8.53;;;5.73;;
79137;SDS011;68544;45.566;10.238;2024-01-30T05:43:41;9.23;;;6.77;;
79137;SDS011;68544;45.566;10.238;2024-01-30T05:46:07;8.67;;;6.50;;
79137;SDS011;68544;45.566;10.238;2024-01-30T05:48:32;7.60;;;6.33;;
79137;SDS011;68544;45.566;10.238;2024-01-30T05:50:58;8.63;;;6.30;;
79137;SDS011;68544;45.566;10.238;2024-01-30T05:53:24;8.05;;;6.40;;
79137;SDS011;68544;45.566;10.238;2024-01-30T05:55:50;8.53;;;6.23;;
79137;SDS011;68544;45.566;10.238;2024-01-30T05:58:15;8.83;;;6.73;;
79137;SDS011;68544;45.566;10.238;2024-01-30T06:00:41;11.27;;;6.33;;
79137;SDS011;68544;45.566;10.238;2024-01-30T06:03:07;9.33;;;5.13;;
79137;SDS011;68544;45.566;10.238;2024-01-30T06:05:32;9.13;;;6.22;;
79137;SDS011;68544;45.566;10.238;2024-01-30T06:07:58;9.47;;;5.80;;
79137;SDS011;68544;45.566;10.238;2024-01-30T06:10:23;7.43;;;5.73;;
79137;SDS011;68544;45.566;10.238;2024-01-30T06:12:48;9.60;;;6.67;;
79137;SDS011;68544;45.566;10.238;2024-01-30T06:15:14;6.13;;;4.97;;
79137;SDS011;68544;45.566;10.238;2024-01-30T06:17:39;5.43;;;4.77;;
79137;SDS011;68544;45.566;10.238;2024-01-30T06:20:05;9.33;;;6.80;;
79137;SDS011;68544;45.566;10.238;2024-01-30T06:22:31;6.88;;;5.18;;
79137;SDS011;68544;45.566;10.238;2024-01-30T06:24:56;9.70;;;6.57;;
79137;SDS011;68544;45.566;10.238;2024-01-30T06:27:21;10.33;;;6.50;;
79137;SDS011;68544;45.566;10.238;2024-01-30T06:29:47;6.07;;;5.00;;
79137;SDS011;68544;45.566;10.238;2024-01-30T06:32:12;8.80;;;6.47;;
79137;SDS011;68544;45.566;10.238;2024-01-30T06:34:37;9.03;;;5.87;;
79137;SDS011;68544;45.566;10.238;2024-01-30T06:37:04;8.23;;;6.40;;
79137;SDS011;68544;45.566;10.238;2024-01-30T06:39:30;6.93;;;5.43;;
79137;SDS011;68544;45.566;10.238;2024-01-30T06:41:55;10.27;;;6.63;;
79137;SDS011;68544;45.566;10.238;2024-01-30T06:44:21;10.63;;;5.90;;
79137;SDS011;68544;45.566;10.238;2024-01-30T06:46:46;8.67;;;4.80;;
79137;SDS011;68544;45.566;10.238;2024-01-30T06:49:11;8.50;;;6.63;;
79137;SDS011;68544;45.566;10.238;2024-01-30T06:51:37;9.93;;;7.13;;
79137;SDS011;68544;45.566;10.238;2024-01-30T06:54:02;10.57;;;6.03;;
79137;SDS011;68544;45.566;10.238;2024-01-30T06:56:28;7.83;;;6.20;;
79137;SDS011;68544;45.566;10.238;2024-01-30T06:58:53;10.40;;;7.60;;
79137;SDS011;68544;45.566;10.238;2024-01-30T07:01:19;15.27;;;8.30;;
79137;SDS011;68544;45.566;10.238;2024-01-30T07:03:44;9.43;;;5.87;;
79137;SDS011;68544;45.566;10.238;2024-01-30T07:06:09;11.87;;;5.77;;
79137;SDS011;68544;45.566;10.238;2024-01-30T07:08:36;15.95;;;7.60;;
79137;SDS011;68544;45.566;10.238;2024-01-30T07:11:02;14.90;;;7.50;;
79137;SDS011;68544;45.566;10.238;2024-01-30T07:13:27;16.20;;;7.73;;
79137;SDS011;68544;45.566;10.238;2024-01-30T07:15:53;7.15;;;5.22;;
79137;SDS011;68544;45.566;10.238;2024-01-30T07:18:19;13.37;;;8.27;;
79137;SDS011;68544;45.566;10.238;2024-01-30T07:20:44;9.57;;;6.97;;
79137;SDS011;68544;45.566;10.238;2024-01-30T07:23:13;10.27;;;6.65;;
79137;SDS011;68544;45.566;10.238;2024-01-30T07:25:41;11.98;;;7.10;;
79137;SDS011;68544;45.566;10.238;2024-01-30T07:28:06;9.50;;;6.60;;
79137;SDS011;68544;45.566;10.238;2024-01-30T07:30:35;12.70;;;6.72;;
79137;SDS011;68544;45.566;10.238;2024-01-30T07:33:01;7.67;;;4.73;;
79137;SDS011;68544;45.566;10.238;2024-01-30T07:35:26;8.47;;;6.20;;
79137;SDS011;68544;45.566;10.238;2024-01-30T07:37:52;14.63;;;5.97;;
79137;SDS011;68544;45.566;10.238;2024-01-30T07:40:17;7.90;;;5.97;;
79137;SDS011;68544;45.566;10.238;2024-01-30T07:42:42;5.37;;;4.03;;
79137;SDS011;68544;45.566;10.238;2024-01-30T07:45:08;11.27;;;5.03;;
79137;SDS011;68544;45.566;10.238;2024-01-30T07:47:34;6.22;;;4.18;;
79137;SDS011;68544;45.566;10.238;2024-01-30T07:49:59;9.50;;;5.77;;
79137;SDS011;68544;45.566;10.238;2024-01-30T07:52:24;7.30;;;4.63;;
79137;SDS011;68544;45.566;10.238;2024-01-30T07:54:50;7.53;;;5.37;;
79137;SDS011;68544;45.566;10.238;2024-01-30T07:57:18;7.13;;;5.65;;
79137;SDS011;68544;45.566;10.238;2024-01-30T07:59:44;7.23;;;5.03;;
79137;SDS011;68544;45.566;10.238;2024-01-30T08:02:10;8.52;;;6.72;;
79137;SDS011;68544;45.566;10.238;2024-01-30T08:04:37;9.48;;;6.82;;
79137;SDS011;68544;45.566;10.238;2024-01-30T08:07:02;9.07;;;6.70;;
79137;SDS011;68544;45.566;10.238;2024-01-30T08:09:27;11.43;;;6.70;;
79137;SDS011;68544;45.566;10.238;2024-01-30T08:11:53;8.40;;;6.67;;
79137;SDS011;68544;45.566;10.238;2024-01-30T08:14:18;10.93;;;6.80;;
79137;SDS011;68544;45.566;10.238;2024-01-30T08:16:43;11.10;;;7.13;;
79137;SDS011;68544;45.566;10.238;2024-01-30T08:19:09;10.33;;;7.37;;
79137;SDS011;68544;45.566;10.238;2024-01-30T08:21:34;10.43;;;6.83;;
79137;SDS011;68544;45.566;10.238;2024-01-30T08:24:02;20.23;;;7.55;;
79137;SDS011;68544;45.566;10.238;2024-01-30T08:26:28;10.40;;;6.30;;
79137;SDS011;68544;45.566;10.238;2024-01-30T08:28:54;10.20;;;6.17;;
79137;SDS011;68544;45.566;10.238;2024-01-30T08:31:19;9.43;;;6.20;;
79137;SDS011;68544;45.566;10.238;2024-01-30T08:33:44;7.43;;;5.67;;
79137;SDS011;68544;45.566;10.238;2024-01-30T08:36:10;7.10;;;4.50;;
79137;SDS011;68544;45.566;10.238;2024-01-30T08:38:35;10.60;;;6.60;;
79137;SDS011;68544;45.566;10.238;2024-01-30T08:41:00;7.23;;;4.77;;
79137;SDS011;68544;45.566;10.238;2024-01-30T08:43:26;7.20;;;5.03;;
79137;SDS011;68544;45.566;10.238;2024-01-30T08:45:51;12.23;;;6.77;;
79137;SDS011;68544;45.566;10.238;2024-01-30T08:48:16;9.90;;;6.47;;
79137;SDS011;68544;45.566;10.238;2024-01-30T08:50:42;11.07;;;7.32;;
79137;SDS011;68544;45.566;10.238;2024-01-30T08:53:08;18.50;;;6.80;;
79137;SDS011;68544;45.566;10.238;2024-01-30T08:55:33;8.77;;;5.53;;
79137;SDS011;68544;45.566;10.238;2024-01-30T08:57:58;13.27;;;7.27;;
79137;SDS011;68544;45.566;10.238;2024-01-30T09:00:24;10.23;;;7.13;;
79137;SDS011;68544;45.566;10.238;2024-01-30T09:02:49;9.23;;;7.07;;
79137;SDS011;68544;45.566;10.238;2024-01-30T09:05:15;11.93;;;7.50;;
79137;SDS011;68544;45.566;10.238;2024-01-30T09:07:40;9.23;;;7.13;;
79137;SDS011;68544;45.566;10.238;2024-01-30T09:10:06;11.40;;;7.77;;
79137;SDS011;68544;45.566;10.238;2024-01-30T09:12:31;12.25;;;7.05;;
79137;SDS011;68544;45.566;10.238;2024-01-30T09:14:57;10.80;;;7.10;;
79137;SDS011;68544;45.566;10.238;2024-01-30T09:17:22;12.67;;;7.77;;
79137;SDS011;68544;45.566;10.238;2024-01-30T09:19:47;20.30;;;11.50;;
79137;SDS011;68544;45.566;10.238;2024-01-30T09:22:13;18.67;;;12.20;;
79137;SDS011;68544;45.566;10.238;2024-01-30T09:24:38;17.60;;;15.03;;
79137;SDS011;68544;45.566;10.238;2024-01-30T09:27:03;24.73;;;19.40;;
79137;SDS011;68544;45.566;10.238;2024-01-30T09:29:29;33.22;;;25.90;;
79137;SDS011;68544;45.566;10.238;2024-01-30T09:31:54;29.00;;;24.40;;
79137;SDS011;68544;45.566;10.238;2024-01-30T09:34:20;35.23;;;25.33;;
79137;SDS011;68544;45.566;10.238;2024-01-30T09:36:45;33.83;;;25.77;;
79137;SDS011;68544;45.566;10.238;2024-01-30T09:39:11;34.03;;;25.97;;
79137;SDS011;68544;45.566;10.238;2024-01-30T09:41:39;39.67;;;25.90;;
79137;SDS011;68544;45.566;10.238;2024-01-30T09:44:25;31.30;;;24.83;;
79137;SDS011;68544;45.566;10.238;2024-01-30T09:46:53;32.20;;;24.95;;
79137;SDS011;68544;45.566;10.238;2024-01-30T09:49:19;32.27;;;26.03;;
79137;SDS011;68544;45.566;10.238;2024-01-30T09:51:45;32.17;;;24.75;;
79137;SDS011;68544;45.566;10.238;2024-01-30T09:54:13;36.50;;;24.73;;
79137;SDS011;68544;45.566;10.238;2024-01-30T09:59:04;35.00;;;23.30;;
79137;SDS011;68544;45.566;10.238;2024-01-30T10:01:29;30.97;;;22.10;;
79137;SDS011;68544;45.566;10.238;2024-01-30T10:03:56;27.20;;;20.02;;
79137;SDS011;68544;45.566;10.238;2024-01-30T10:06:22;24.87;;;19.20;;
79137;SDS011;68544;45.566;10.238;2024-01-30T10:08:49;23.55;;;18.45;;
79137;SDS011;68544;45.566;10.238;2024-01-30T10:11:15;26.70;;;19.23;;
79137;SDS011;68544;45.566;10.238;2024-01-30T10:13:40;23.70;;;19.10;;
79137;SDS011;68544;45.566;10.238;2024-01-30T10:16:06;26.17;;;18.77;;
79137;SDS011;68544;45.566;10.238;2024-01-30T10:18:31;28.23;;;21.25;;
79137;SDS011;68544;45.566;10.238;2024-01-30T10:20:58;30.98;;;20.67;;
79137;SDS011;68544;45.566;10.238;2024-01-30T10:23:24;25.77;;;20.50;;
79137;SDS011;68544;45.566;10.238;2024-01-30T10:25:51;30.87;;;21.43;;
79137;SDS011;68544;45.566;10.238;2024-01-30T10:28:17;29.42;;;20.88;;
79137;SDS011;68544;45.566;10.238;2024-01-30T10:30:42;31.15;;;21.33;;
79137;SDS011;68544;45.566;10.238;2024-01-30T10:33:08;30.53;;;20.63;;
79137;SDS011;68544;45.566;10.238;2024-01-30T10:35:34;22.25;;;19.83;;
79137;SDS011;68544;45.566;10.238;2024-01-30T10:37:59;28.63;;;19.27;;
79137;SDS011;68544;45.566;10.238;2024-01-30T10:40:27;25.00;;;19.20;;
79137;SDS011;68544;45.566;10.238;2024-01-30T10:42:53;23.30;;;18.65;;
79137;SDS011;68544;45.566;10.238;2024-01-30T10:45:20;24.48;;;19.58;;
79137;SDS011;68544;45.566;10.238;2024-01-30T10:47:50;23.50;;;20.40;;
79137;SDS011;68544;45.566;10.238;2024-01-30T10:50:19;23.38;;;20.02;;
79137;SDS011;68544;45.566;10.238;2024-01-30T10:52:45;23.52;;;20.48;;
79137;SDS011;68544;45.566;10.238;2024-01-30T10:55:11;26.20;;;21.08;;
79137;SDS011;68544;45.566;10.238;2024-01-30T10:57:38;30.45;;;22.45;;
79137;SDS011;68544;45.566;10.238;2024-01-30T11:00:08;25.63;;;21.73;;
79137;SDS011;68544;45.566;10.238;2024-01-30T11:02:36;24.77;;;21.60;;
79137;SDS011;68544;45.566;10.238;2024-01-30T11:05:06;23.52;;;21.05;;
79137;SDS011;68544;45.566;10.238;2024-01-30T11:07:31;25.13;;;20.75;;
79137;SDS011;68544;45.566;10.238;2024-01-30T11:12:23;25.20;;;20.83;;
79137;SDS011;68544;45.566;10.238;2024-01-30T11:14:49;23.52;;;21.13;;
79137;SDS011;68544;45.566;10.238;2024-01-30T11:17:27;22.38;;;20.10;;
79137;SDS011;68544;45.566;10.238;2024-01-30T11:19:53;24.33;;;20.67;;
79137;SDS011;68544;45.566;10.238;2024-01-30T11:22:20;22.15;;;19.90;;
79137;SDS011;68544;45.566;10.238;2024-01-30T11:24:45;22.45;;;20.08;;
79137;SDS011;68544;45.566;10.238;2024-01-30T11:27:12;22.17;;;19.98;;
79137;SDS011;68544;45.566;10.238;2024-01-30T11:29:40;25.70;;;19.77;;
79137;SDS011;68544;45.566;10.238;2024-01-30T11:34:31;21.20;;;19.00;;
79137;SDS011;68544;45.566;10.238;2024-01-30T11:36:59;22.63;;;19.02;;
79137;SDS011;68544;45.566;10.238;2024-01-30T11:39:31;23.30;;;20.73;;
79137;SDS011;68544;45.566;10.238;2024-01-30T11:41:57;21.05;;;18.98;;
79137;SDS011;68544;45.566;10.238;2024-01-30T11:44:24;20.83;;;18.65;;
79137;SDS011;68544;45.566;10.238;2024-01-30T11:49:18;24.60;;;19.70;;
79137;SDS011;68544;45.566;10.238;2024-01-30T11:51:47;23.98;;;19.35;;
79137;SDS011;68544;45.566;10.238;2024-01-30T11:54:14;21.08;;;19.15;;
79137;SDS011;68544;45.566;10.238;2024-01-30T11:56:40;21.15;;;19.35;;
79137;SDS011;68544;45.566;10.238;2024-01-30T11:59:07;22.65;;;20.42;;
79137;SDS011;68544;45.566;10.238;2024-01-30T12:03:58;22.52;;;20.40;;
79137;SDS011;68544;45.566;10.238;2024-01-30T12:06:24;23.30;;;20.05;;
79137;SDS011;68544;45.566;10.238;2024-01-30T12:11:25;23.13;;;20.73;;
79137;SDS011;68544;45.566;10.238;2024-01-30T12:13:55;23.38;;;20.85;;
79137;SDS011;68544;45.566;10.238;2024-01-30T12:16:21;22.73;;;20.50;;
79137;SDS011;68544;45.566;10.238;2024-01-30T12:21:12;22.13;;;19.63;;
79137;SDS011;68544;45.566;10.238;2024-01-30T12:23:41;24.65;;;20.73;;
79137;SDS011;68544;45.566;10.238;2024-01-30T12:28:32;23.08;;;20.85;;
79137;SDS011;68544;45.566;10.238;2024-01-30T12:33:29;24.35;;;21.80;;
79137;SDS011;68544;45.566;10.238;2024-01-30T12:35:55;26.25;;;23.92;;
79137;SDS011;68544;45.566;10.238;2024-01-30T12:38:24;26.63;;;24.15;;
79137;SDS011;68544;45.566;10.238;2024-01-30T12:43:19;20.67;;;17.92;;
79137;SDS011;68544;45.566;10.238;2024-01-30T12:48:09;21.43;;;18.30;;
79137;SDS011;68544;45.566;10.238;2024-01-30T12:53:00;19.27;;;17.23;;
79137;SDS011;68544;45.566;10.238;2024-01-30T12:55:25;23.30;;;17.48;;
79137;SDS011;68544;45.566;10.238;2024-01-30T12:57:53;22.85;;;18.42;;
79137;SDS011;68544;45.566;10.238;2024-01-30T13:02:45;24.48;;;18.23;;
79137;SDS011;68544;45.566;10.238;2024-01-30T13:05:10;20.63;;;18.67;;
79137;SDS011;68544;45.566;10.238;2024-01-30T13:07:35;24.20;;;17.23;;
79137;SDS011;68544;45.566;10.238;2024-01-30T13:10:01;20.47;;;16.03;;
79137;SDS011;68544;45.566;10.238;2024-01-30T13:12:28;22.55;;;17.52;;
79137;SDS011;68544;45.566;10.238;2024-01-30T13:14:54;20.48;;;18.00;;
79137;SDS011;68544;45.566;10.238;2024-01-30T13:17:20;19.63;;;17.60;;
79137;SDS011;68544;45.566;10.238;2024-01-30T13:19:45;22.23;;;17.13;;
79137;SDS011;68544;45.566;10.238;2024-01-30T13:22:11;21.03;;;18.37;;
79137;SDS011;68544;45.566;10.238;2024-01-30T13:24:36;31.33;;;20.23;;
79137;SDS011;68544;45.566;10.238;2024-01-30T13:27:02;21.43;;;18.57;;
79137;SDS011;68544;45.566;10.238;2024-01-30T13:29:30;22.00;;;19.48;;
79137;SDS011;68544;45.566;10.238;2024-01-30T13:31:56;23.17;;;19.33;;
79137;SDS011;68544;45.566;10.238;2024-01-30T13:34:21;21.83;;;18.57;;
79137;SDS011;68544;45.566;10.238;2024-01-30T13:36:47;21.75;;;18.13;;
79137;SDS011;68544;45.566;10.238;2024-01-30T13:39:13;21.50;;;19.20;;
79137;SDS011;68544;45.566;10.238;2024-01-30T13:41:39;22.42;;;19.50;;
79137;SDS011;68544;45.566;10.238;2024-01-30T13:44:06;26.67;;;19.55;;
79137;SDS011;68544;45.566;10.238;2024-01-30T13:46:31;23.23;;;19.33;;
79137;SDS011;68544;45.566;10.238;2024-01-30T13:48:57;31.43;;;20.97;;
79137;SDS011;68544;45.566;10.238;2024-01-30T13:51:22;24.40;;;20.17;;
79137;SDS011;68544;45.566;10.238;2024-01-30T13:53:48;24.70;;;21.47;;
79137;SDS011;68544;45.566;10.238;2024-01-30T13:56:15;26.63;;;22.45;;
79137;SDS011;68544;45.566;10.238;2024-01-30T13:58:40;24.17;;;21.73;;
79137;SDS011;68544;45.566;10.238;2024-01-30T14:01:06;24.97;;;20.47;;
79137;SDS011;68544;45.566;10.238;2024-01-30T14:03:31;24.73;;;20.90;;
79137;SDS011;68544;45.566;10.238;2024-01-30T14:05:57;25.73;;;21.63;;
79137;SDS011;68544;45.566;10.238;2024-01-30T14:08:22;25.37;;;21.13;;
79137;SDS011;68544;45.566;10.238;2024-01-30T14:10:51;23.17;;;20.65;;
79137;SDS011;68544;45.566;10.238;2024-01-30T14:13:17;25.63;;;21.07;;
79137;SDS011;68544;45.566;10.238;2024-01-30T14:15:42;26.50;;;21.57;;
79137;SDS011;68544;45.566;10.238;2024-01-30T14:18:07;24.70;;;22.07;;
79137;SDS011;68544;45.566;10.238;2024-01-30T14:20:34;24.42;;;21.83;;
79137;SDS011;68544;45.566;10.238;2024-01-30T14:22:59;25.70;;;22.38;;
79137;SDS011;68544;45.566;10.238;2024-01-30T14:25:24;27.53;;;23.73;;
79137;SDS011;68544;45.566;10.238;2024-01-30T14:27:50;26.27;;;23.30;;
79137;SDS011;68544;45.566;10.238;2024-01-30T14:30:16;27.15;;;23.67;;
79137;SDS011;68544;45.566;10.238;2024-01-30T14:35:09;29.73;;;22.55;;
79137;SDS011;68544;45.566;10.238;2024-01-30T14:37:35;26.83;;;22.33;;
79137;SDS011;68544;45.566;10.238;2024-01-30T14:40:00;28.70;;;23.37;;
79137;SDS011;68544;45.566;10.238;2024-01-30T14:42:26;27.67;;;23.40;;
79137;SDS011;68544;45.566;10.238;2024-01-30T14:44:52;29.25;;;24.83;;
79137;SDS011;68544;45.566;10.238;2024-01-30T14:47:17;30.63;;;25.40;;
79137;SDS011;68544;45.566;10.238;2024-01-30T14:49:43;35.93;;;26.00;;
79137;SDS011;68544;45.566;10.238;2024-01-30T14:52:08;29.27;;;25.57;;
79137;SDS011;68544;45.566;10.238;2024-01-30T14:54:35;31.17;;;24.50;;